• Join FlightAware (Why Join?)
  • Login
  • US Flag 
Gobble Gobble! 
12:46PM EST


 

Airport Tracker/Info


-or-


 

Live Flight TrackerFlight Track Log ✈ N978AC ✈ 16-Apr-2014 ✈ KRAL - KSQL

Flight Track Log - Related Links

Times and Time Zones

All times are in EDT time to prevent confusion due to time zone crossing. See the N978AC flight status page for this flight to view local times or setup timezone preferences in your user account.

Time Position Orientation Groundspeed Altitude Reporting Facility
EDT Latitude Longitude Course Direction KTS MPH feet Rate Location/Type
05:03PM 33.9500 -117.4667 220° Southwest 77 89 1,500  Level Southern California TRACON
05:04PM 33.9333 -117.4833 220° Southwest 74 85 2,000 480 Climbing Southern California TRACON
05:05PM 33.9333 -117.5000 270° West 73 84 2,500 420 Climbing Southern California TRACON
05:06PM 33.9167 -117.5167 220° Southwest 74 85 2,900 420 Climbing Southern California TRACON
05:07PM 33.9167 -117.5500 270° West 77 89 3,400 420 Climbing Southern California TRACON
05:08PM 33.9333 -117.5667 320° Northwest 76 87 3,800 360 Climbing Southern California TRACON
05:09PM 33.9333 -117.6000 270° West 80 92 4,200 360 Climbing Southern California TRACON
05:10PM 33.9333 -117.6167 270° West 83 96 4,600 360 Climbing Southern California TRACON
05:11PM 33.9500 -117.6500 301° West 80 92 4,900 300 Climbing Southern California TRACON
05:12PM 33.9500 -117.6667 270° West 78 90 5,300 300 Climbing Southern California TRACON
05:13PM 33.9667 -117.7000 301° West 84 97 5,600 300 Climbing Southern California TRACON
05:14PM 33.9833 -117.7167 320° Northwest 82 94 5,900 240 Climbing Southern California TRACON
05:15PM 33.9833 -117.7333 270° West 95 109 6,100 120 Climbing Southern California TRACON
05:16PM 34.0000 -117.7667 301° West 98 113 6,200  Climbing Southern California TRACON
05:17PM 34.0000 -117.8000 270° West 103 119 6,100 -120 Descending Southern California TRACON
05:18PM 34.0167 -117.8333 301° West 97 112 6,000  Descending Southern California TRACON
05:19PM 34.0333 -117.8667 301° West 94 108 6,100  Climbing Southern California TRACON
05:20PM 34.0333 -117.9000 270° West 95 109 6,100 -60 Level Southern California TRACON
05:21PM 34.0500 -117.9167 320° Northwest 90 104 6,000 -60 Descending Southern California TRACON
05:22PM 34.0500 -117.9500 270° West 96 110 6,000  Level Southern California TRACON
05:23PM 34.0667 -117.9833 301° West 92 106 6,100 60 Climbing Southern California TRACON
05:24PM 34.0667 -118.0000 270° West 92 106 6,200 180 Climbing Southern California TRACON
05:25PM 34.0833 -118.0333 301° West 78 90 6,500 240 Climbing Southern California TRACON
05:26PM 34.1000 -118.0500 320° Northwest 76 87 6,800 240 Climbing Southern California TRACON
05:27PM 34.1000 -118.0667 270° West 78 90 7,100 300 Climbing Southern California TRACON
05:28PM 34.1000 -118.1000 270° West 79 91 7,400 300 Climbing Southern California TRACON
05:29PM 34.1167 -118.1167 320° Northwest 74 85 7,700 240 Climbing Southern California TRACON
05:30PM 34.1167 -118.1500 270° West 73 84 8,000 180 Climbing Southern California TRACON
05:31PM 34.1167 -118.1667 270° West 70 81 8,200 120 Climbing Southern California TRACON
05:32PM 34.1333 -118.1833 320° Northwest 62 71 8,300 60 Climbing Southern California TRACON
05:33PM 34.1500 -118.2000 320° Northwest 66 76 8,400 120 Climbing Southern California TRACON
05:34PM 34.1667 -118.2000 360° North 65 75 8,600 240 Climbing Southern California TRACON
05:35PM 34.1833 -118.2167 320° Northwest 67 77 8,900 240 Climbing Southern California TRACON
05:36PM 34.2000 -118.2333 320° Northwest 65 75 9,200 240 Climbing Southern California TRACON
05:37PM 34.2167 -118.2333 360° North 67 77 9,400 180 Climbing Southern California TRACON
05:38PM 34.2333 -118.2500 320° Northwest 73 84 9,600 180 Climbing Southern California TRACON
05:39PM 34.2500 -118.2667 320° Northwest 70 81 9,800 180 Climbing Southern California TRACON
05:40PM 34.2667 -118.2667 360° North 74 85 10,000 120 Climbing Southern California TRACON
05:41PM 34.2833 -118.2833 320° Northwest 74 85 10,100  Climbing Southern California TRACON
05:42PM 34.3000 -118.3000 320° Northwest 84 97 10,100  Level Southern California TRACON
05:44PM 34.3353 -118.3264 328° Northwest 80 92 10,200  Climbing Los Angeles Center
05:45PM 34.3503 -118.3439 316° Northwest 80 92 10,100 -60 Descending Los Angeles Center
05:46PM 34.3706 -118.3592 328° Northwest 81 93 10,100  Level Los Angeles Center
05:47PM 34.3867 -118.3767 318° Northwest 80 92 10,100  Level Los Angeles Center
05:48PM 34.4047 -118.3928 324° Northwest 80 92 10,100  Level Los Angeles Center
05:49PM 34.4233 -118.4056 330° Northwest 80 92 10,100  Level Los Angeles Center
05:50PM 34.4453 -118.4214 329° Northwest 79 91 10,200  Climbing Los Angeles Center
05:51PM 34.4628 -118.4367 324° Northwest 79 91 10,100  Descending Los Angeles Center
05:52PM 34.4828 -118.4483 334° Northwest 79 91 10,200  Climbing Los Angeles Center
05:53PM 34.5017 -118.4631 327° Northwest 79 91 10,100  Descending Los Angeles Center
05:54PM 34.5183 -118.4781 323° Northwest 78 90 10,200  Climbing Los Angeles Center
05:55PM 34.5428 -118.4922 334° Northwest 78 90 10,100  Descending Los Angeles Center
05:57PM 34.5606 -118.5006 339° North 72 83 10,200  Climbing Los Angeles Center
05:58PM 34.5842 -118.5128 337° Northwest 89 102 10,100 -60 Descending Los Angeles Center
05:59PM 34.6031 -118.5256 331° Northwest 80 92 10,100  Level Los Angeles Center
06:00PM 34.6192 -118.5297 348° North 61 70 10,100  Level Los Angeles Center
06:01PM 34.6336 -118.5394 331° Northwest 59 68 10,200  Climbing Los Angeles Center
06:02PM 34.6544 -118.5503 337° Northwest 66 76 10,200 -60 Level Los Angeles Center
06:03PM 34.6742 -118.5683 323° Northwest 88 101 10,100  Descending Los Angeles Center
06:04PM 34.6881 -118.5906 307° West 82 94 10,200  Climbing Los Angeles Center
06:05PM 34.7058 -118.6122 315° West 88 101 10,100 -60 Descending Los Angeles Center
06:06PM 34.7225 -118.6317 316° Northwest 85 98 10,100  Level Los Angeles Center
06:07PM 34.7417 -118.6558 314° West 84 97 10,200  Climbing Los Angeles Center
06:08PM 34.7544 -118.6786 304° West 83 96 10,100  Descending Los Angeles Center
06:09PM 34.7708 -118.6953 320° Northwest 79 91 10,200  Climbing Los Angeles Center
06:10PM 34.7875 -118.7156 315° West 84 97 10,200 -60 Level Los Angeles Center
06:11PM 34.8033 -118.7350 315° West 81 93 10,100  Descending Los Angeles Center
06:12PM 34.8169 -118.7556 309° West 78 90 10,200 -60 Climbing Los Angeles Center
06:13PM 34.8433 -118.7828 320° Northwest 100 115 10,000 -60 Descending Los Angeles Center
06:14PM 34.8558 -118.8019 308° West 74 85 10,100 60 Climbing Los Angeles Center
06:15PM 34.8636 -118.8250 292° West 73 84 10,200  Climbing Los Angeles Center
06:16PM 34.8758 -118.8494 301° West 80 92 10,200 -60 Level Los Angeles Center
06:17PM 34.8911 -118.8725 309° West 83 96 10,100  Descending Los Angeles Center
06:18PM 34.9042 -118.8953 305° West 77 89 10,200  Climbing Los Angeles Center
06:19PM 34.9158 -118.9194 300° West 80 92 10,100 -60 Descending Los Angeles Center
06:20PM 34.9289 -118.9406 307° West 79 91 10,100  Level Los Angeles Center
06:21PM 34.9417 -118.9622 306° West 79 91 10,200  Climbing Los Angeles Center
06:22PM 34.9633 -118.9836 321° Northwest 80 92 10,200 -60 Level Los Angeles Center
06:23PM 34.9797 -119.0050 313° West 82 94 10,100 -60 Descending Los Angeles Center
06:24PM 34.9967 -119.0253 316° Northwest 87 100 10,100  Level Los Angeles Center
06:25PM 35.0094 -119.0456 308° West 80 92 10,100  Level Los Angeles Center
06:27PM 35.0231 -119.0656 310° West 79 91 10,100  Level Los Angeles Center
06:28PM 35.0383 -119.0878 310° West 74 85 10,200  Climbing Los Angeles Center
06:29PM 35.0517 -119.1119 304° West 82 94 10,100 -60 Descending Los Angeles Center
06:30PM 35.0681 -119.1331 313° West 88 101 10,100  Level Los Angeles Center
06:31PM 35.0825 -119.1528 312° West 84 97 10,100  Level Los Angeles Center
06:32PM 35.0933 -119.1753 300° West 82 94 10,100  Level Los Angeles Center
06:33PM 35.1067 -119.1936 312° West 75 86 10,200  Climbing Los Angeles Center
06:34PM 35.1233 -119.2172 311° West 75 86 10,200  Level Los Angeles Center
06:35PM 35.1394 -119.2381 313° West 78 90 10,200 -60 Level Los Angeles Center
06:36PM 35.1547 -119.2589 312° West 79 91 10,100 -60 Descending Los Angeles Center
06:37PM 35.1681 -119.2783 310° West 79 91 10,100  Level Los Angeles Center
06:38PM 35.1811 -119.2967 311° West 76 87 10,200  Climbing Los Angeles Center
06:39PM 35.1972 -119.3206 310° West 76 87 10,200  Level Los Angeles Center
06:40PM 35.2125 -119.3403 313° West 76 87 10,200 -60 Level Los Angeles Center
06:42PM 35.2344 -119.3761 307° West 79 91 10,100  Descending Oakland Center
06:43PM 35.2472 -119.3972 307° West 80 92 10,200 60 Climbing Oakland Center
06:43PM 35.2528 -119.4044 313° West 80 92 10,200 -120 Level Los Angeles Center
06:44PM 35.2667 -119.4242 311° West 79 91 10,100 -60 Descending Los Angeles Center
06:45PM 35.2850 -119.4478 314° West 79 91 10,100  Level Los Angeles Center
06:46PM 35.3003 -119.4642 319° Northwest 79 91 10,100  Level Los Angeles Center
06:47PM 35.3139 -119.4814 314° West 75 86 10,200  Climbing Los Angeles Center
06:48PM 35.3258 -119.5003 308° West 75 86 10,200  Level Los Angeles Center
06:49PM 35.3336 -119.5283 289° West 82 94 10,200 -60 Level Los Angeles Center
06:50PM 35.3522 -119.5528 313° West 81 93 10,100 -60 Descending Los Angeles Center
06:51PM 35.3681 -119.5708 317° Northwest 81 93 10,100  Level Los Angeles Center
06:52PM 35.3822 -119.5886 314° West 80 92 10,100  Level Los Angeles Center
06:53PM 35.3964 -119.6056 316° Northwest 76 87 10,100  Level Los Angeles Center
06:54PM 35.4103 -119.6239 313° West 75 86 10,200  Climbing Los Angeles Center
06:56PM 35.4236 -119.6489 303° West 78 90 10,100 -60 Descending Los Angeles Center
06:57PM 35.4428 -119.6733 314° West 82 94 10,100  Level Los Angeles Center
06:58PM 35.4550 -119.6939 306° West 82 94 10,200  Climbing Los Angeles Center
06:59PM 35.4656 -119.7144 302° West 76 87 10,200 -60 Level Los Angeles Center
07:00PM 35.4806 -119.7344 313° West 76 87 10,100 -60 Descending Los Angeles Center
07:01PM 35.4967 -119.7550 314° West 78 90 10,100  Level Los Angeles Center
07:02PM 35.5144 -119.7800 311° West 81 93 10,100  Level Los Angeles Center
07:03PM 35.5275 -119.8000 309° West 81 93 10,100  Level Los Angeles Center
07:04PM 35.5425 -119.8217 310° West 80 92 10,100  Level Los Angeles Center
07:05PM 35.5575 -119.8425 312° West 81 93 10,100  Level Los Angeles Center
07:06PM 35.5711 -119.8650 307° West 81 93 10,100  Level Los Angeles Center
07:07PM 35.5858 -119.8833 315° West 80 92 10,200  Climbing Los Angeles Center
07:08PM 35.6017 -119.9050 312° West 75 86 10,200  Level Los Angeles Center
07:09PM 35.6125 -119.9308 297° West 78 90 10,200 -60 Level Los Angeles Center
07:10PM 35.6294 -119.9542 312° West 85 98 10,100  Descending Los Angeles Center
07:11PM 35.6447 -119.9733 314° West 85 98 10,200  Climbing Los Angeles Center
07:12PM 35.6581 -119.9903 314° West 78 90 10,200  Level Los Angeles Center
07:13PM 35.6756 -120.0122 314° West 75 86 10,200  Level Los Angeles Center
07:14PM 35.6881 -120.0378 301° West 80 92 10,200  Level Los Angeles Center
07:15PM 35.7050 -120.0556 320° Northwest 80 92 10,200  Level Los Angeles Center
07:16PM 35.7186 -120.0744 312° West 80 92 10,200  Level Los Angeles Center
07:17PM 35.7342 -120.0919 318° Northwest 80 92 10,200  Level Los Angeles Center
07:18PM 35.7481 -120.1211 300° West 81 93 10,200 -60 Level Los Angeles Center
07:19PM 35.7661 -120.1419 317° Northwest 83 96 10,100 -60 Descending Oakland Center
07:20PM 35.7831 -120.1631 315° West 86 99 10,100  Level Oakland Center
07:21PM 35.7972 -120.1825 312° West 83 96 10,200  Climbing Oakland Center
07:23PM 35.8144 -120.2100 308° West 82 94 10,200 -60 Level Oakland Center
07:24PM 35.8311 -120.2314 314° West 83 96 10,100 -60 Descending Oakland Center
07:25PM 35.8475 -120.2494 318° Northwest 83 96 10,100  Level Oakland Center
07:26PM 35.8650 -120.2678 320° Northwest 83 96 10,100  Level Oakland Center
07:27PM 35.8814 -120.2850 320° Northwest 82 94 10,100  Level Oakland Center
07:28PM 35.8975 -120.3014 321° Northwest 80 92 10,200  Climbing Oakland Center
07:29PM 35.9133 -120.3197 317° Northwest 79 91 10,200  Level Oakland Center
07:30PM 35.9286 -120.3394 314° West 79 91 10,200  Level Oakland Center
07:31PM 35.9492 -120.3622 318° Northwest 81 93 10,200 -60 Level Oakland Center
07:32PM 35.9672 -120.3825 318° Northwest 84 97 10,100 -60 Descending Oakland Center
07:33PM 35.9853 -120.4039 316° Northwest 88 101 10,100  Level Oakland Center
07:34PM 36.0033 -120.4197 325° Northwest 81 93 10,200  Climbing Oakland Center
07:35PM 36.0214 -120.4356 325° Northwest 82 94 10,200  Level Oakland Center
07:36PM 36.0389 -120.4525 322° Northwest 82 94 10,200  Level Oakland Center
07:37PM 36.0531 -120.4750 308° West 81 93 10,200  Level Oakland Center
07:38PM 36.0711 -120.4939 320° Northwest 83 96 10,200  Level Oakland Center
07:39PM 36.0906 -120.5178 315° West 83 96 10,200  Level Oakland Center
07:40PM 36.1089 -120.5375 319° Northwest 84 97 10,200 -60 Level Oakland Center
07:41PM 36.1231 -120.5631 304° West 85 98 10,100 -60 Descending Oakland Center
07:42PM 36.1417 -120.5825 320° Northwest 89 102 10,100  Level Oakland Center
07:43PM 36.1586 -120.6014 318° Northwest 87 100 10,100  Level Oakland Center
07:44PM 36.1742 -120.6228 312° West 85 98 10,200  Climbing Oakland Center
07:45PM 36.1919 -120.6442 316° Northwest 86 99 10,200 -60 Level Oakland Center
07:46PM 36.2086 -120.6642 316° Northwest 86 99 10,100 -60 Descending Oakland Center
07:47PM 36.2272 -120.6881 314° West 84 97 10,100  Level Oakland Center
07:48PM 36.2439 -120.7075 317° Northwest 84 97 10,200  Climbing Oakland Center
07:49PM 36.2603 -120.7269 316° Northwest 83 96 10,100  Descending Oakland Center
07:50PM 36.2772 -120.7458 318° Northwest 83 96 10,200  Climbing Oakland Center
07:51PM 36.2936 -120.7664 315° West 83 96 10,200 -60 Level Oakland Center
07:52PM 36.3111 -120.7889 314° West 86 99 10,100 -60 Descending Oakland Center
07:53PM 36.3292 -120.8075 320° Northwest 86 99 10,100  Level Oakland Center
07:54PM 36.3456 -120.8281 315° West 85 98 10,100  Level Oakland Center
07:55PM 36.3628 -120.8533 310° West 83 96 10,200  Climbing Oakland Center
07:56PM 36.3797 -120.8750 314° West 84 97 10,200 -60 Level Oakland Center
07:57PM 36.3989 -120.8922 324° Northwest 85 98 10,100 -120 Descending Oakland Center
07:58PM 36.4164 -120.9117 318° Northwest 85 98 10,000 -60 Descending Oakland Center
07:59PM 36.4350 -120.9300 322° Northwest 85 98 10,000  Level Oakland Center
08:00PM 36.4533 -120.9481 322° Northwest 85 98 10,000  Level Oakland Center
08:01PM 36.4686 -120.9689 312° West 83 96 10,000  Level Oakland Center
08:02PM 36.4842 -120.9894 313° West 83 96 10,000  Level Oakland Center
08:03PM 36.5050 -121.0122 319° Northwest 84 97 10,100  Climbing Oakland Center
08:05PM 36.5228 -121.0306 320° Northwest 83 96 10,100  Level Oakland Center
08:06PM 36.5408 -121.0533 315° West 89 102 10,100 -60 Level Oakland Center
08:07PM 36.5586 -121.0756 315° West 90 104 10,000 -60 Descending Oakland Center
08:08PM 36.5761 -121.0964 316° Northwest 89 102 10,000 -180 Level Oakland Center
08:09PM 36.5953 -121.1178 318° Northwest 90 104 9,700 -420 Descending Oakland Center
08:10PM 36.6158 -121.1417 317° Northwest 98 113 9,200 -540 Descending Oakland Center
08:11PM 36.6353 -121.1678 313° West 100 115 8,700 -540 Descending Oakland Center
08:12PM 36.6589 -121.1975 315° West 102 117 8,100 -360 Descending Oakland Center
08:13PM 36.6786 -121.2203 317° Northwest 98 113 8,000  Descending Oakland Center
08:14PM 36.6961 -121.2417 316° Northwest 93 107 8,100  Climbing Oakland Center
08:15PM 36.7114 -121.2644 310° West 89 102 8,100  Level Oakland Center
08:16PM 36.7297 -121.2825 322° Northwest 88 101 8,100  Level Oakland Center
08:17PM 36.7469 -121.3042 315° West 88 101 8,100 -240 Level Oakland Center
08:18PM 36.7650 -121.3258 316° Northwest 88 101 7,700 -540 Descending Oakland Center
08:19PM 36.7856 -121.3497 317° Northwest 95 109 7,000 -780 Descending Oakland Center
08:20PM 36.8072 -121.3753 317° Northwest 91 105 6,200 -540 Descending Oakland Center
08:21PM 36.8244 -121.4014 309° West 93 107 6,000 -60 Descending Oakland Center
08:22PM 36.8417 -121.4253 312° West 94 108 6,100  Climbing Oakland Center
08:23PM 36.8597 -121.4439 320° Northwest 91 105 6,100  Level Oakland Center
08:24PM 36.8800 -121.4639 322° Northwest 90 104 6,100 -60 Level Oakland Center
08:25PM 36.8986 -121.4839 319° Northwest 90 104 6,000 -60 Descending Oakland Center
08:26PM 36.9150 -121.5061 313° West 89 102 6,000  Level Oakland Center
08:27PM 36.9322 -121.5283 314° West 89 102 6,000  Level Oakland Center
08:28PM 36.9500 -121.5481 318° Northwest 89 102 6,100  Climbing Oakland Center
08:29PM 36.9697 -121.5758 312° West 89 102 6,000 -60 Descending Oakland Center
08:30PM 36.9892 -121.5947 322° Northwest 89 102 6,000  Level Oakland Center
08:31PM 37.0078 -121.6136 321° Northwest 89 102 6,100  Climbing Oakland Center
08:32PM 37.0233 -121.6372 310° West 89 102 6,100  Level Oakland Center
08:33PM 37.0386 -121.6608 309° West 88 101 6,100  Level Oakland Center
08:34PM 37.0553 -121.6828 314° West 88 101 6,100 -180 Level Oakland Center
08:35PM 37.0722 -121.7058 313° West 89 102 5,800 -360 Descending Oakland Center
08:36PM 37.0825 -121.7339 295° West 87 100 5,400 -300 Descending Oakland Center
08:37PM 37.0797 -121.7700 265° West 91 105 5,200 -120 Descending Oakland Center
08:38PM 37.0764 -121.8100 264° West 94 108 5,200  Level Oakland Center
08:39PM 37.0931 -121.8342 311° West 97 112 5,200  Level Oakland Center
08:40PM 37.1094 -121.8575 311° West 94 108 5,200  Level Oakland Center
08:41PM 37.1247 -121.8814 309° West 93 107 5,200  Level Oakland Center
08:42PM 37.1397 -121.9053 308° West 92 106 5,200  Level Oakland Center
08:43PM 37.1575 -121.9272 315° West 92 106 5,200 -300 Level Oakland Center
08:44PM 37.1839 -121.9367 344° North 99 114 4,700 -300 Descending Oakland Center
08:45PM 37.2114 -121.9483 341° North 97 112 4,600 -120 Descending Oakland Center
08:46PM 37.2364 -121.9769 318° Northwest 98 113 4,500 -240 Descending Oakland Center
08:47PM 37.2572 -122.0025 316° Northwest 99 114 4,200 -300 Descending Oakland Center
08:49PM 37.2808 -122.0269 321° Northwest 104 120 4,000 -120 Descending Oakland Center
08:50PM 37.3008 -122.0486 319° Northwest 103 119 4,000  Level Oakland Center
08:51PM 37.3208 -122.0683 322° Northwest 97 112 4,000  Level Oakland Center
08:52PM 37.3411 -122.0892 321° Northwest 97 112 4,100  Climbing Oakland Center
08:53PM 37.3608 -122.1086 322° Northwest 95 109 4,100 -120 Level Oakland Center
08:53PM 37.3833 -122.1167 344° North 101 116 3,900 -540 Descending Northern Cal TRACON
08:54PM 37.4000 -122.1333 322° Northwest 98 113 3,300 -540 Descending Northern Cal TRACON
08:55PM 37.4167 -122.1500 322° Northwest 94 108 2,900 -540 Descending Northern Cal TRACON
08:56PM 37.4500 -122.1833 322° Northwest 94 108 2,300 -660 Descending Northern Cal TRACON
08:57PM 37.4667 -122.2000 322° Northwest 95 109 1,700 -660 Descending Northern Cal TRACON
08:58PM 37.4833 -122.2167 322° Northwest 94 108 1,100 -600 Descending Northern Cal TRACON
08:59PM 37.4928 -122.2300 312° West 95 109 800 -660 Descending Oakland Center
09:00PM 37.5078 -122.2472 318° Northwest 86 99 100 -720 Descending Oakland Center
09:02PM 37.5118 -122.2495 125° Southeast  Level Estimated
09:09PM 37.5118 -122.2495 313° West  Level Estimated